createdAt,value
2024-04-06T00:02:21.713Z,98507.79
2024-04-06T00:04:49.677Z,98509.33
2024-04-06T00:07:19.555Z,98505.46
2024-04-06T00:09:47.194Z,98494.15
2024-04-06T00:12:20.738Z,98486.39
2024-04-06T00:14:48.133Z,98481.20
2024-04-06T00:17:15.625Z,98472.63
2024-04-06T00:19:43.097Z,98474.65
2024-04-06T00:22:11.589Z,98473.15
2024-04-06T00:24:39.000Z,98464.98
2024-04-06T00:27:06.365Z,98463.27
2024-04-06T00:29:33.756Z,98466.02
2024-04-06T00:32:01.137Z,98472.43
2024-04-06T00:34:28.491Z,98468.13
2024-04-06T00:36:57.609Z,98464.67
2024-04-06T00:39:24.977Z,98466.95
2024-04-06T00:41:52.523Z,98466.69
2024-04-06T00:44:20.096Z,98469.60
2024-04-06T00:46:47.446Z,98464.48
2024-04-06T00:49:14.846Z,98467.23
2024-04-06T00:51:42.226Z,98462.78
2024-04-06T00:54:09.793Z,98460.73
2024-04-06T00:56:37.702Z,98458.96
2024-04-06T00:59:05.226Z,98456.02
2024-04-06T01:01:32.592Z,98457.92
2024-04-06T01:04:00.002Z,98453.21
2024-04-06T01:06:27.555Z,98452.01
2024-04-06T01:08:54.890Z,98444.27
2024-04-06T01:11:22.318Z,98447.52
2024-04-06T01:13:49.671Z,98450.41
2024-04-06T01:16:17.154Z,98451.59
2024-04-06T01:18:44.550Z,98454.47
2024-04-06T01:21:11.943Z,98446.73
2024-04-06T01:23:39.271Z,98446.45
2024-04-06T01:26:07.069Z,98442.77
2024-04-06T01:28:34.472Z,98436.70
2024-04-06T01:31:01.767Z,98437.10
2024-04-06T01:33:29.281Z,98431.73
2024-04-06T01:35:56.714Z,98423.54
2024-04-06T01:38:24.127Z,98420.27
2024-04-06T01:43:18.267Z,98398.64
2024-04-06T01:45:45.626Z,98397.39
2024-04-06T01:48:13.454Z,98395.45
2024-04-06T01:50:41.178Z,98389.82
2024-04-06T01:53:08.568Z,98388.00
2024-04-06T01:55:36.128Z,98387.58
2024-04-06T01:58:03.689Z,98388.13
2024-04-06T02:00:31.114Z,98394.70
2024-04-06T02:02:58.500Z,98392.28
2024-04-06T02:05:25.757Z,98390.13
2024-04-06T02:07:53.246Z,98388.31
2024-04-06T02:10:20.760Z,98383.52
2024-04-06T02:12:48.264Z,98381.63
2024-04-06T02:15:15.606Z,98380.16
2024-04-06T02:17:43.134Z,98385.77
2024-04-06T02:20:10.570Z,98389.11
2024-04-06T02:22:37.924Z,98389.05
2024-04-06T02:25:08.762Z,98388.23
2024-04-06T02:27:42.038Z,98393.55
2024-04-06T02:30:09.910Z,98391.21
2024-04-06T02:32:37.270Z,98385.02
2024-04-06T02:35:05.725Z,98383.55
2024-04-06T02:37:33.104Z,98385.75
2024-04-06T02:40:00.461Z,98386.96
2024-04-06T02:42:27.839Z,98384.96
2024-04-06T02:44:55.683Z,98389.52
2024-04-06T02:47:23.083Z,98392.77
2024-04-06T02:49:53.018Z,98386.80
2024-04-06T02:52:20.491Z,98388.73
2024-04-06T02:54:49.180Z,98382.90
2024-04-06T02:57:17.159Z,98383.45
2024-04-06T02:59:44.415Z,98388.89
2024-04-06T03:02:11.883Z,98390.27
2024-04-06T03:05:26.216Z,98392.29
2024-04-06T03:07:53.711Z,98390.23
2024-04-06T03:10:21.030Z,98385.92
2024-04-06T03:12:50.767Z,98376.02
2024-04-06T03:15:18.363Z,98376.61
2024-04-06T03:17:45.693Z,98375.27
2024-04-06T03:20:13.216Z,98374.63
2024-04-06T03:22:40.619Z,98371.30
2024-04-06T03:25:07.896Z,98371.05
2024-04-06T03:27:35.225Z,98372.72
2024-04-06T03:30:02.643Z,98371.70
2024-04-06T03:32:30.115Z,98366.83
2024-04-06T03:34:59.962Z,98367.04
2024-04-06T03:37:27.363Z,98365.46
2024-04-06T03:39:55.076Z,98367.79
2024-04-06T03:42:25.527Z,98368.86
2024-04-06T03:44:53.171Z,98374.86
2024-04-06T03:47:24.518Z,98373.10
2024-04-06T03:50:41.620Z,98371.89
2024-04-06T03:53:11.426Z,98371.94
2024-04-06T03:55:38.845Z,98375.48
2024-04-06T03:58:06.479Z,98375.57
2024-04-06T04:00:34.133Z,98371.38
2024-04-06T04:03:01.560Z,98371.78
2024-04-06T04:05:28.999Z,98376.45
2024-04-06T04:07:56.402Z,98377.81
2024-04-06T04:10:24.056Z,98371.43
2024-04-06T04:12:51.759Z,98373.87
2024-04-06T04:15:23.019Z,98373.20
2024-04-06T04:17:50.310Z,98368.50
2024-04-06T04:20:17.821Z,98371.21
2024-04-06T04:22:45.206Z,98366.48
2024-04-06T04:25:12.720Z,98366.96
2024-04-06T04:27:40.139Z,98360.59
2024-04-06T04:30:24.799Z,98357.41
2024-04-06T04:32:53.494Z,98355.41
2024-04-06T04:35:21.659Z,98355.70
2024-04-06T04:37:49.101Z,98352.98
2024-04-06T04:40:17.119Z,98357.10
2024-04-06T04:42:44.523Z,98354.44
2024-04-06T04:45:15.374Z,98356.17
2024-04-06T04:47:45.307Z,98355.23
2024-04-06T04:50:12.844Z,98354.85
2024-04-06T04:52:40.286Z,98358.31
2024-04-06T04:55:07.838Z,98357.67
2024-04-06T04:57:35.239Z,98357.15
2024-04-06T05:00:03.596Z,98356.95
2024-04-06T05:02:30.942Z,98356.28
2024-04-06T05:04:58.336Z,98355.27
2024-04-06T05:07:25.663Z,98351.27
2024-04-06T05:09:54.847Z,98346.56
2024-04-06T05:12:22.194Z,98347.33
2024-04-06T05:14:49.635Z,98345.71
2024-04-06T05:17:17.223Z,98340.37
2024-04-06T05:19:44.610Z,98336.90
2024-04-06T05:22:11.965Z,98339.27
2024-04-06T05:24:39.326Z,98337.98
2024-04-06T05:27:06.951Z,98335.21
2024-04-06T05:29:34.293Z,98329.98
2024-04-06T05:32:01.672Z,98326.80
2024-04-06T05:34:28.981Z,98318.98
2024-04-06T05:36:59.782Z,98314.87
2024-04-06T05:39:27.650Z,98309.83
2024-04-06T05:41:55.041Z,98301.67
2024-04-06T05:44:24.696Z,98298.08
2024-04-06T05:46:55.085Z,98289.61
2024-04-06T05:49:22.617Z,98285.06
2024-04-06T05:51:50.030Z,98276.04
2024-04-06T05:54:17.438Z,98266.20
2024-04-06T05:56:44.962Z,98264.77
2024-04-06T05:59:12.393Z,98265.58
2024-04-06T06:01:40.070Z,98266.17
2024-04-06T06:04:09.905Z,98264.94
2024-04-06T06:06:37.250Z,98265.14
2024-04-06T06:09:05.421Z,98265.65
2024-04-06T06:11:32.792Z,98270.66
2024-04-06T06:14:05.295Z,98275.05
2024-04-06T06:16:35.071Z,98275.56
2024-04-06T06:19:02.685Z,98276.70
2024-04-06T06:21:36.251Z,98277.39
2024-04-06T06:24:04.463Z,98274.19
2024-04-06T06:26:32.402Z,98271.87
2024-04-06T06:28:59.841Z,98267.38
2024-04-06T06:31:34.868Z,98266.70
2024-04-06T06:34:02.386Z,98266.81
2024-04-06T06:41:33.675Z,98266.73
2024-04-06T06:44:01.038Z,98268.73
2024-04-06T06:46:28.428Z,98267.39
2024-04-06T06:48:55.766Z,98264.45
2024-04-06T06:51:23.106Z,98270.62
2024-04-06T06:53:50.448Z,98271.10
2024-04-06T06:56:17.856Z,98273.64
2024-04-06T06:58:45.160Z,98274.73
2024-04-06T07:01:12.553Z,98277.17
2024-04-06T07:03:40.242Z,98274.10
2024-04-06T07:06:10.642Z,98273.59
2024-04-06T07:08:38.008Z,98274.83
2024-04-06T07:11:05.770Z,98276.25
2024-04-06T07:13:33.275Z,98275.80
2024-04-06T07:16:13.191Z,98274.56
2024-04-06T07:18:41.250Z,98276.72
2024-04-06T07:21:12.110Z,98276.83
2024-04-06T07:26:18.009Z,98276.27
2024-04-06T07:28:45.493Z,98279.52
2024-04-06T07:31:15.469Z,98280.27
2024-04-06T07:33:42.989Z,98281.33
2024-04-06T07:36:10.520Z,98278.20
2024-04-06T07:39:19.834Z,98282.06
2024-04-06T07:41:28.491Z,98282.06
2024-04-06T07:43:55.866Z,98282.33
2024-04-06T07:46:23.961Z,98278.36
2024-04-06T07:48:51.372Z,98278.28
2024-04-06T07:51:18.938Z,98281.40
2024-04-06T07:53:47.236Z,98294.08
2024-04-06T07:56:15.768Z,98310.52
2024-04-06T07:58:43.277Z,98322.80
2024-04-06T08:01:10.896Z,98326.34
2024-04-06T08:03:38.385Z,98323.19
2024-04-06T08:06:07.481Z,98324.57
2024-04-06T08:08:35.997Z,98312.31
2024-04-06T08:11:04.065Z,98298.88
2024-04-06T08:13:32.184Z,98292.64
2024-04-06T08:15:59.995Z,98295.86
2024-04-06T08:18:29.781Z,98297.58
2024-04-06T08:20:57.164Z,98298.70
2024-04-06T08:23:24.596Z,98300.91
2024-04-06T08:25:57.246Z,98302.58
2024-04-06T08:28:24.621Z,98301.51
2024-04-06T08:30:52.016Z,98296.21
2024-04-06T08:39:52.642Z,98304.62
2024-04-06T08:42:20.998Z,98305.98
2024-04-06T08:44:48.838Z,98299.61
2024-04-06T08:47:24.726Z,98299.30
2024-04-06T08:49:51.689Z,98296.19
2024-04-06T08:52:18.526Z,98293.52
2024-04-06T08:54:45.251Z,98288.69
2024-04-06T08:57:12.102Z,98290.21
2024-04-06T08:59:38.922Z,98296.54
2024-04-06T09:02:06.010Z,98293.21
2024-04-06T09:04:32.912Z,98282.83
2024-04-06T09:07:01.762Z,98285.86
2024-04-06T09:09:28.683Z,98282.50
2024-04-06T09:11:55.527Z,98278.19
2024-04-06T09:14:24.724Z,98275.40
2024-04-06T09:16:57.832Z,98275.80
2024-04-06T09:19:25.642Z,98273.22
2024-04-06T09:21:56.220Z,98270.23
2024-04-06T09:24:27.352Z,98275.18
2024-04-06T09:27:14.246Z,98278.45
2024-04-06T09:29:47.028Z,98288.25
2024-04-06T09:32:17.038Z,98298.67
2024-04-06T09:34:50.834Z,98313.02
2024-04-06T09:37:33.785Z,98335.37
2024-04-06T09:40:01.104Z,98347.14
2024-04-06T09:42:28.768Z,98354.99
2024-04-06T09:44:56.809Z,98351.14
2024-04-06T09:47:24.238Z,98340.16
2024-04-06T09:49:51.195Z,98352.27
2024-04-06T09:52:19.321Z,98361.05
2024-04-06T09:54:47.029Z,98364.08
2024-04-06T09:57:14.623Z,98358.02
2024-04-06T09:59:43.349Z,98345.95
2024-04-06T10:02:10.208Z,98343.46
2024-04-06T10:05:51.947Z,98345.36
2024-04-06T10:12:49.259Z,98352.05
2024-04-06T10:15:18.019Z,98359.20
2024-04-06T10:17:49.158Z,98358.45
2024-04-06T10:20:26.861Z,98353.19
2024-04-06T10:22:55.706Z,98351.92
2024-04-06T10:25:27.207Z,98346.55
2024-04-06T10:28:01.312Z,98343.78
2024-04-06T10:30:39.826Z,98345.47
2024-04-06T10:33:07.294Z,98344.05
2024-04-06T10:35:34.171Z,98345.29
2024-04-06T10:38:00.946Z,98345.33
2024-04-06T10:40:28.828Z,98341.30
2024-04-06T10:42:55.846Z,98329.39
2024-04-06T10:45:22.614Z,98321.64
2024-04-06T10:47:49.389Z,98321.20
2024-04-06T10:50:17.719Z,98326.64
2024-04-06T10:52:44.962Z,98323.42
2024-04-06T10:55:16.562Z,98319.91
2024-04-06T10:57:46.851Z,98314.19
2024-04-06T11:00:18.477Z,98312.83
2024-04-06T11:02:45.430Z,98309.00
2024-04-06T11:05:14.648Z,98304.69
2024-04-06T11:07:42.177Z,98304.29
2024-04-06T11:10:10.209Z,98302.58
2024-04-06T11:12:40.293Z,98302.03
2024-04-06T11:15:08.348Z,98305.63
2024-04-06T11:17:35.872Z,98306.55
2024-04-06T11:20:03.969Z,98305.09
2024-04-06T11:22:31.060Z,98299.73
2024-04-06T11:24:57.849Z,98296.52
2024-04-06T11:27:28.131Z,98296.13
2024-04-06T11:29:55.636Z,98292.35
2024-04-06T11:32:24.192Z,98293.67
2024-04-06T11:34:53.964Z,98289.63
2024-04-06T11:37:21.582Z,98286.34
2024-04-06T11:39:48.920Z,98288.88
2024-04-06T11:42:15.990Z,98285.25
2024-04-06T11:44:42.892Z,98287.33
2024-04-06T11:47:09.828Z,98285.45
2024-04-06T11:49:36.581Z,98281.59
2024-04-06T11:52:03.556Z,98282.77
2024-04-06T11:54:30.354Z,98276.70
2024-04-06T11:57:17.455Z,98276.42
2024-04-06T11:59:44.145Z,98270.27
2024-04-06T12:02:11.095Z,98268.27
2024-04-06T12:04:37.815Z,98262.35
2024-04-06T12:07:05.220Z,98261.83
2024-04-06T12:09:32.067Z,98258.79
2024-04-06T12:11:59.309Z,98256.19
2024-04-06T12:14:26.143Z,98256.41
2024-04-06T12:16:54.006Z,98259.95
2024-04-06T12:19:21.008Z,98259.63
2024-04-06T12:21:47.821Z,98257.29
2024-04-06T12:24:15.414Z,98255.39
2024-04-06T12:26:42.171Z,98259.90
2024-04-06T12:29:10.473Z,98264.15
2024-04-06T12:31:37.422Z,98266.27
2024-04-06T12:34:04.243Z,98263.41
2024-04-06T12:36:30.967Z,98259.86
2024-04-06T12:38:58.544Z,98259.59
2024-04-06T12:41:25.217Z,98258.34
2024-04-06T12:43:52.052Z,98255.02
2024-04-06T12:46:18.983Z,98252.88
2024-04-06T12:48:45.797Z,98254.84
2024-04-06T12:51:14.811Z,98258.92
2024-04-06T12:53:42.397Z,98253.95
2024-04-06T12:56:09.335Z,98252.53
2024-04-06T12:58:36.226Z,98253.52
2024-04-06T13:01:09.016Z,98247.84
2024-04-06T13:03:38.734Z,98245.71
2024-04-06T13:06:10.600Z,98246.69
2024-04-06T13:08:37.415Z,98247.33
2024-04-06T13:11:06.865Z,98244.05
2024-04-06T13:13:34.101Z,98239.58
2024-04-06T13:16:00.788Z,98237.17
2024-04-06T13:18:27.507Z,98233.13
2024-04-06T13:20:54.158Z,98231.65
2024-04-06T13:23:21.088Z,98230.33
2024-04-06T13:25:47.889Z,98227.50
2024-04-06T13:28:14.598Z,98232.40
2024-04-06T13:30:41.248Z,98236.27
2024-04-06T13:33:08.113Z,98233.10
2024-04-06T13:35:34.894Z,98236.15
2024-04-06T13:38:01.721Z,98236.81
2024-04-06T13:40:28.730Z,98238.77
2024-04-06T13:42:56.443Z,98237.24
2024-04-06T13:45:23.331Z,98236.31
2024-04-06T13:47:50.097Z,98237.77
2024-04-06T13:50:17.406Z,98241.52
2024-04-06T13:52:44.078Z,98239.11
2024-04-06T13:55:10.824Z,98241.42
2024-04-06T13:57:38.025Z,98246.03
2024-04-06T14:00:08.724Z,98244.30
2024-04-06T14:03:09.772Z,98240.93
2024-04-06T14:05:39.637Z,98242.07
2024-04-06T14:08:06.523Z,98243.49
2024-04-06T14:10:36.317Z,98244.39
2024-04-06T14:13:04.382Z,98241.14
2024-04-06T14:15:31.394Z,98239.39
2024-04-06T14:18:00.741Z,98242.13
2024-04-06T14:20:30.595Z,98240.29
2024-04-06T14:22:57.692Z,98237.19
2024-04-06T14:25:24.461Z,98241.55
2024-04-06T14:27:51.334Z,98242.71
2024-04-06T14:30:29.337Z,98243.02
2024-04-06T14:32:58.992Z,98243.98
2024-04-06T14:35:26.012Z,98245.45
2024-04-06T14:37:52.806Z,98249.61
2024-04-06T14:40:19.628Z,98247.35
2024-04-06T14:42:46.721Z,98245.89
2024-04-06T14:45:13.513Z,98245.41
2024-04-06T14:47:40.472Z,98247.33
2024-04-06T14:50:07.598Z,98248.22
2024-04-06T14:52:34.281Z,98247.09
2024-04-06T14:55:02.737Z,98246.13
2024-04-06T14:57:29.665Z,98251.37
2024-04-06T14:59:56.607Z,98251.92
2024-04-06T15:02:23.690Z,98254.98
2024-04-06T15:04:50.476Z,98255.97
2024-04-06T15:07:24.899Z,98259.74
2024-04-06T15:09:57.808Z,98255.38
2024-04-06T15:12:24.676Z,98254.95
2024-04-06T15:14:51.390Z,98261.11
2024-04-06T15:17:18.255Z,98260.91
2024-04-06T15:19:47.607Z,98265.88
2024-04-06T15:22:16.464Z,98267.09
2024-04-06T15:24:43.612Z,98268.90
2024-04-06T15:27:10.823Z,98268.80
2024-04-06T15:29:38.142Z,98269.77
2024-04-06T15:32:05.414Z,98268.59
2024-04-06T15:34:33.409Z,98272.30
2024-04-06T15:37:04.430Z,98271.54
2024-04-06T15:39:32.798Z,98273.29
2024-04-06T15:41:59.573Z,98277.23
2024-04-06T15:44:26.403Z,98281.70
2024-04-06T15:46:54.620Z,98286.28
2024-04-06T15:49:21.585Z,98283.89
2024-04-06T15:51:48.363Z,98289.52
2024-04-06T15:54:15.259Z,98291.64
2024-04-06T15:56:42.030Z,98290.49
2024-04-06T15:59:08.680Z,98290.41
2024-04-06T16:01:35.986Z,98292.77
2024-04-06T16:04:06.062Z,98296.08
2024-04-06T16:08:32.252Z,98296.14
2024-04-06T16:10:59.081Z,98295.43
2024-04-06T16:13:25.804Z,98295.80
2024-04-06T16:15:52.752Z,98300.92
2024-04-06T16:18:19.458Z,98298.02
2024-04-06T16:20:49.403Z,98298.98
2024-04-06T16:23:16.339Z,98302.63
2024-04-06T16:25:43.145Z,98300.80
2024-04-06T16:28:14.041Z,98298.17
2024-04-06T16:30:40.903Z,98303.11
2024-04-06T16:33:07.596Z,98299.98
2024-04-06T16:35:34.507Z,98295.98
2024-04-06T16:38:05.760Z,98304.59
2024-04-06T16:40:32.695Z,98300.14
2024-04-06T16:42:59.955Z,98304.02
2024-04-06T16:45:27.818Z,98301.48
2024-04-06T16:47:58.553Z,98295.75
2024-04-06T16:50:26.367Z,98299.91
2024-04-06T16:52:58.448Z,98309.28
2024-04-06T16:55:25.278Z,98309.29
2024-04-06T16:57:52.187Z,98314.14
2024-04-06T17:00:19.210Z,98322.89
2024-04-06T17:02:46.517Z,98327.79
2024-04-06T17:05:13.939Z,98327.61
2024-04-06T17:07:41.440Z,98332.32
2024-04-06T17:10:09.084Z,98333.93
2024-04-06T17:12:42.187Z,98337.09
2024-04-06T17:15:09.196Z,98339.16
2024-04-06T17:17:36.108Z,98340.81
2024-04-06T17:20:06.030Z,98340.79
2024-04-06T17:22:33.763Z,98346.17
2024-04-06T17:25:11.909Z,98353.21
2024-04-06T17:27:38.751Z,98355.72
2024-04-06T17:30:09.313Z,98361.38
2024-04-06T17:32:37.551Z,98365.67
2024-04-06T17:35:05.567Z,98372.64
2024-04-06T17:37:35.107Z,98375.65
2024-04-06T17:40:05.047Z,98381.45
2024-04-06T17:42:33.120Z,98385.52
2024-04-06T17:45:00.413Z,98390.91
2024-04-06T17:47:27.219Z,98394.05
2024-04-06T17:49:54.085Z,98398.96
2024-04-06T17:52:20.802Z,98404.55
2024-04-06T17:54:48.107Z,98414.15
2024-04-06T17:57:19.207Z,98411.66
2024-04-06T17:59:50.168Z,98416.13
2024-04-06T18:02:17.095Z,98420.76
2024-04-06T18:04:47.647Z,98419.91
2024-04-06T18:07:14.287Z,98425.52
2024-04-06T18:09:41.151Z,98426.65
2024-04-06T18:12:11.112Z,98431.77
2024-04-06T18:14:37.818Z,98438.04
2024-04-06T18:17:06.480Z,98444.91
2024-04-06T18:19:39.775Z,98447.78
2024-04-06T18:22:07.327Z,98453.79
2024-04-06T18:24:35.379Z,98453.77
2024-04-06T18:27:52.886Z,98456.55
2024-04-06T18:30:21.217Z,98461.83
2024-04-06T18:32:48.187Z,98467.75
2024-04-06T18:35:17.221Z,98470.77
2024-04-06T18:37:46.662Z,98472.78
2024-04-06T18:40:13.643Z,98478.23
2024-04-06T18:42:40.487Z,98477.60
2024-04-06T18:45:07.586Z,98481.61
2024-04-06T18:47:35.991Z,98483.45
2024-04-06T18:50:05.284Z,98483.77
2024-04-06T18:52:35.563Z,98487.66
2024-04-06T18:55:04.495Z,98492.44
2024-04-06T18:57:34.189Z,98493.13
2024-04-06T19:00:00.986Z,98498.55
2024-04-06T19:02:27.807Z,98498.98
2024-04-06T19:05:01.384Z,98497.06
2024-04-06T19:07:28.346Z,98495.63
2024-04-06T19:09:57.797Z,98500.16
2024-04-06T19:12:24.845Z,98503.70
2024-04-06T19:14:51.744Z,98507.65
2024-04-06T19:17:18.466Z,98510.98
2024-04-06T19:19:48.130Z,98511.69
2024-04-06T19:22:15.007Z,98516.93
2024-04-06T19:24:41.675Z,98515.08
2024-04-06T19:27:08.630Z,98520.02
2024-04-06T19:29:35.667Z,98519.23
2024-04-06T19:32:02.709Z,98521.52
2024-04-06T19:34:32.948Z,98522.92
2024-04-06T19:36:59.782Z,98525.46
2024-04-06T19:39:26.631Z,98530.70
2024-04-06T19:41:55.129Z,98529.64
2024-04-06T19:44:22.065Z,98532.88
2024-04-06T19:46:51.344Z,98536.11
2024-04-06T19:49:18.111Z,98531.83
2024-04-06T19:51:44.925Z,98529.92
2024-04-06T19:54:11.810Z,98527.73
2024-04-06T19:56:44.252Z,98528.67
2024-04-06T19:59:11.982Z,98527.83
2024-04-06T20:01:40.218Z,98530.30
2024-04-06T20:04:10.158Z,98531.69
2024-04-06T20:06:38.786Z,98535.05
2024-04-06T20:09:07.730Z,98534.49
2024-04-06T20:11:34.642Z,98539.27
2024-04-06T20:14:01.807Z,98543.73
2024-04-06T20:16:29.206Z,98546.67
2024-04-06T20:18:57.451Z,98550.91
2024-04-06T20:21:26.061Z,98549.13
2024-04-06T20:24:11.305Z,98553.80
2024-04-06T20:26:40.446Z,98556.89
2024-04-06T20:29:11.158Z,98551.45
2024-04-06T20:31:39.397Z,98550.34
2024-04-06T20:34:06.330Z,98551.09
2024-04-06T20:36:35.217Z,98557.63
2024-04-06T20:39:08.781Z,98560.52
2024-04-06T20:41:36.560Z,98557.79
2024-04-06T20:44:04.376Z,98559.73
2024-04-06T20:46:31.971Z,98559.20
2024-04-06T20:48:58.752Z,98566.74
2024-04-06T20:51:25.892Z,98569.56
2024-04-06T20:53:53.251Z,98566.85
2024-04-06T20:56:20.117Z,98568.55
2024-04-06T20:58:47.167Z,98566.91
2024-04-06T21:01:14.763Z,98562.84
2024-04-06T21:03:41.709Z,98562.66
2024-04-06T21:06:10.782Z,98567.46
2024-04-06T21:08:41.087Z,98572.05
2024-04-06T21:11:07.820Z,98571.95
2024-04-06T21:13:34.753Z,98575.08
2024-04-06T21:16:03.862Z,98574.45
2024-04-06T21:18:30.917Z,98571.02
2024-04-06T21:20:57.731Z,98573.26
2024-04-06T21:23:24.909Z,98582.77
2024-04-06T21:25:51.738Z,98581.38
2024-04-06T21:28:18.723Z,98580.86
2024-04-06T21:30:45.525Z,98577.20
2024-04-06T21:33:12.372Z,98576.05
2024-04-06T21:35:39.651Z,98580.15
2024-04-06T21:38:06.558Z,98577.09
2024-04-06T21:40:33.477Z,98581.02
2024-04-06T21:43:09.600Z,98582.23
2024-04-06T21:45:42.603Z,98581.52
2024-04-06T21:48:33.737Z,98581.18
2024-04-06T21:51:04.015Z,98578.42
2024-04-06T21:53:35.049Z,98577.14
2024-04-06T21:56:04.128Z,98580.10
2024-04-06T21:58:31.315Z,98585.68
2024-04-06T22:00:59.600Z,98590.36
2024-04-06T22:03:26.483Z,98586.84
2024-04-06T22:05:53.544Z,98583.17
2024-04-06T22:08:20.209Z,98590.13
2024-04-06T22:10:47.134Z,98589.30
2024-04-06T22:13:13.873Z,98585.91
2024-04-06T22:15:40.846Z,98586.83
2024-04-06T22:18:07.535Z,98593.94
2024-04-06T22:20:35.012Z,98596.36
2024-04-06T22:23:01.703Z,98591.60
2024-04-06T22:25:28.812Z,98584.17
2024-04-06T22:27:55.601Z,98589.83
2024-04-06T22:30:22.839Z,98590.02
2024-04-06T22:32:49.518Z,98592.36
2024-04-06T22:35:16.333Z,98592.80
2024-04-06T22:37:43.212Z,98600.02
2024-04-06T22:40:10.634Z,98603.20
2024-04-06T22:42:37.554Z,98602.88
2024-04-06T22:45:06.077Z,98608.10
2024-04-06T22:47:33.174Z,98607.89
2024-04-06T22:50:00.229Z,98603.91
2024-04-06T22:52:27.413Z,98599.24
2024-04-06T22:54:54.211Z,98596.13
2024-04-06T22:57:20.989Z,98596.45
2024-04-06T22:59:47.886Z,98594.52
2024-04-06T23:02:14.590Z,98592.14
2024-04-06T23:04:41.479Z,98587.64
2024-04-06T23:07:08.583Z,98590.92
2024-04-06T23:09:35.215Z,98591.23
2024-04-06T23:15:24.877Z,98592.27
2024-04-06T23:17:51.832Z,98590.74
2024-04-06T23:20:18.790Z,98589.92
2024-04-06T23:22:45.860Z,98594.79
2024-04-06T23:25:14.529Z,98598.75
2024-04-06T23:27:44.116Z,98600.38
2024-04-06T23:30:13.966Z,98601.51
2024-04-06T23:32:40.882Z,98598.14
2024-04-06T23:35:08.339Z,98597.29
2024-04-06T23:37:35.406Z,98595.56
2024-04-06T23:40:02.523Z,98594.63
2024-04-06T23:42:29.375Z,98591.60
2024-04-06T23:44:56.061Z,98594.68
2024-04-06T23:47:22.809Z,98589.96
2024-04-06T23:49:51.904Z,98594.27
2024-04-06T23:52:18.578Z,98594.50
2024-04-06T23:54:45.754Z,98598.58
2024-04-06T23:57:12.393Z,98603.71
2024-04-06T23:59:39.128Z,98607.88
